Minerva Zen — SVBN3 — position and weather

sailwx.info

Track history (hours):
 
Tides and Currents Weather Stations Pressure Air Temp Water Temp Dewpoint Dewpoint Depression Visibility Wind Speed Wind Dir Waves Ship Positions

Minerva Zen

Last reported at 2016-Sep-25 09:33 UTC. Time now 2016-Sep-25 10:37 UTC.
Position N 57°42' E 010°41'.

Length 183 m; draft 8.3 m.

Type: Ship. MMSI: 241190000.

Date/timePositionNaut miles runAvg speedWind from/ knotsBaromVisibWave heightAir tempDewpointWater temp
2016-Sep-25 09:33N 57°42' E 010°41'0 0.0
2016-Sep-25 07:33N 57°42' E 010°42'0 0.0
2016-Sep-25 04:24N 57°41' E 010°42'0 0.0
2016-Sep-25 00:33N 57°41' E 010°42'0 0.0
2016-Sep-24 22:33N 57°41' E 010°42'0 0.0
2016-Sep-24 19:21N 57°42' E 010°42'0 0.0
2016-Sep-24 18:33N 57°42' E 010°42'0 0.0
2016-Sep-24 17:33N 57°42' E 010°42'0 0.0
2016-Sep-24 14:30N 57°41' E 010°42'0 0.0
2016-Sep-24 12:30N 57°41' E 010°42'0 0.0
2016-Sep-24 09:27N 57°41' E 010°42'0 0.0
2016-Sep-24 03:30N 57°41' E 010°42'0 0.0
2016-Sep-24 02:33N 57°41' E 010°42'0 0.0
2016-Sep-24 01:33N 57°41' E 010°42'0 0.0
2016-Sep-24 00:30N 57°41' E 010°42'0 0.0
2016-Sep-23 19:27N 57°41' E 010°42'0 0.0
2016-Sep-23 17:30N 57°41' E 010°42'0 0.0
2016-Sep-23 15:33N 57°41' E 010°42'0 0.0
2016-Sep-23 13:27N 57°41' E 010°42'0 0.0
2016-Sep-23 09:33N 57°41' E 010°42'0 0.0
2016-Sep-23 06:15N 57°41' E 010°42'0 0.0
2016-Sep-23 04:27N 57°41' E 010°42'0 0.0
2016-Sep-23 02:27N 57°41' E 010°42'0 0.0
2016-Sep-23 01:33N 57°41' E 010°42'0 0.0
2016-Sep-23 00:33N 57°41' E 010°42'0 0.0
2016-Sep-22 23:33N 57°41' E 010°42'0 0.0
2016-Sep-22 20:30N 57°41' E 010°42'0 0.0
2016-Sep-22 04:33N 57°42' E 010°42'0 0.0
2016-Sep-22 03:33N 57°42' E 010°42'0 0.0
2016-Sep-22 00:33N 57°42' E 010°42'0 0.0
2016-Sep-21 23:33N 57°41' E 010°42'0 0.0
2016-Sep-21 22:33N 57°41' E 010°42'0 0.0
2016-Sep-21 19:27N 57°41' E 010°42'0 0.0
2016-Sep-21 16:33N 57°41' E 010°42'0 0.0
2016-Sep-21 09:33N 57°42' E 010°41'0 0.0
2016-Sep-21 08:30N 57°41' E 010°42'0 0.0
2016-Sep-21 03:27N 57°42' E 010°42'0 0.0
2016-Sep-20 17:33N 57°41' E 010°42'0 0.0
2016-Sep-20 14:33N 57°41' E 010°42'0 0.0
2016-Sep-20 13:27N 57°41' E 010°42'0 0.0
2016-Sep-20 10:33N 57°41' E 010°42'0 0.0
2016-Sep-20 08:27N 57°41' E 010°42'0 0.0
2016-Sep-20 07:15N 57°41' E 010°42'0 0.0
2016-Sep-20 06:27N 57°41' E 010°42'0 0.0
2016-Sep-20 02:27N 57°41' E 010°42'0 0.0
2016-Sep-19 23:33N 57°41' E 010°42'0 0.0
2016-Sep-19 19:33N 57°41' E 010°42'0 0.1
2016-Sep-19 18:30N 57°41' E 010°42'0 0.0
2016-Sep-19 16:30N 57°41' E 010°42'0 0.0
2016-Sep-19 14:33N 57°41' E 010°42'0 0.0
2016-Sep-19 13:33N 57°41' E 010°42'0 0.0
2016-Sep-19 12:30N 57°41' E 010°42'0 0.0
2016-Sep-19 11:27N 57°41' E 010°41'0 0.0
2016-Sep-19 09:33N 57°41' E 010°41'0 0.0
2016-Sep-19 07:33N 57°41' E 010°42'0 0.1
2016-Sep-19 06:24N 57°41' E 010°42'0 0.0
2016-Sep-19 03:15N 57°41' E 010°42'0 0.0
2016-Sep-19 02:33N 57°41' E 010°42'0 0.0
2016-Sep-19 00:30N 57°41' E 010°42'0 0.0
2016-Sep-18 19:30N 57°41' E 010°41'0 0.0
2016-Sep-18 15:33N 57°41' E 010°41'1 1.0
2016-Sep-18 14:33N 57°42' E 010°43'34 8.3
2016-Sep-18 10:29N 57°42' E 009°39'8210.3
2016-Sep-18 02:33N 56°58' E 007°32'21510.2
2016-Sep-17 05:32N 53°50' E 004°27'1110.9
2016-Sep-17 04:33N 53°43' E 004°13'112 4.4
2016-Sep-16 03:28N 52°05' E 002°46'0 0.0
2016-Sep-16 00:31N 52°05' E 002°46'0 0.0
2016-Sep-15 22:28N 52°05' E 002°46'0 0.2
2016-Sep-15 21:28N 52°05' E 002°46'0 0.0
2016-Sep-15 20:28N 52°05' E 002°46'0 0.0
2016-Sep-15 18:31N 52°05' E 002°46'0 0.0
2016-Sep-15 12:31N 52°05' E 002°46'0 0.0
2016-Sep-15 11:32N 52°05' E 002°46'  
Track history (hours):
 
Tides and Currents Weather Stations Pressure Air Temp Water Temp Dewpoint Dewpoint Depression Visibility Wind Speed Wind Dir Waves Ship Positions

Minerva Zen

Last reported at 2016-Sep-25 09:33 UTC. Time now 2016-Sep-25 10:37 UTC.
Position N 57°42' E 010°41'.

Length 183 m; draft 8.3 m.

Type: Ship. MMSI: 241190000.

Date/timePositionNaut miles runAvg speedWind from/ knotsBaromVisibWave heightAir tempDewpointWater temp
2016-Sep-25 09:33N 57°42' E 010°41'0 0.0
2016-Sep-25 07:33N 57°42' E 010°42'0 0.0
2016-Sep-25 04:24N 57°41' E 010°42'0 0.0
2016-Sep-25 00:33N 57°41' E 010°42'0 0.0
2016-Sep-24 22:33N 57°41' E 010°42'0 0.0
2016-Sep-24 19:21N 57°42' E 010°42'0 0.0
2016-Sep-24 18:33N 57°42' E 010°42'0 0.0
2016-Sep-24 17:33N 57°42' E 010°42'0 0.0
2016-Sep-24 14:30N 57°41' E 010°42'0 0.0
2016-Sep-24 12:30N 57°41' E 010°42'0 0.0
2016-Sep-24 09:27N 57°41' E 010°42'0 0.0
2016-Sep-24 03:30N 57°41' E 010°42'0 0.0
2016-Sep-24 02:33N 57°41' E 010°42'0 0.0
2016-Sep-24 01:33N 57°41' E 010°42'0 0.0
2016-Sep-24 00:30N 57°41' E 010°42'0 0.0
2016-Sep-23 19:27N 57°41' E 010°42'0 0.0
2016-Sep-23 17:30N 57°41' E 010°42'0 0.0
2016-Sep-23 15:33N 57°41' E 010°42'0 0.0
2016-Sep-23 13:27N 57°41' E 010°42'0 0.0
2016-Sep-23 09:33N 57°41' E 010°42'0 0.0
2016-Sep-23 06:15N 57°41' E 010°42'0 0.0
2016-Sep-23 04:27N 57°41' E 010°42'0 0.0
2016-Sep-23 02:27N 57°41' E 010°42'0 0.0
2016-Sep-23 01:33N 57°41' E 010°42'0 0.0
2016-Sep-23 00:33N 57°41' E 010°42'0 0.0
2016-Sep-22 23:33N 57°41' E 010°42'0 0.0
2016-Sep-22 20:30N 57°41' E 010°42'0 0.0
2016-Sep-22 04:33N 57°42' E 010°42'0 0.0
2016-Sep-22 03:33N 57°42' E 010°42'0 0.0
2016-Sep-22 00:33N 57°42' E 010°42'0 0.0
2016-Sep-21 23:33N 57°41' E 010°42'0 0.0
2016-Sep-21 22:33N 57°41' E 010°42'0 0.0
2016-Sep-21 19:27N 57°41' E 010°42'0 0.0
2016-Sep-21 16:33N 57°41' E 010°42'0 0.0
2016-Sep-21 09:33N 57°42' E 010°41'0 0.0
2016-Sep-21 08:30N 57°41' E 010°42'0 0.0
2016-Sep-21 03:27N 57°42' E 010°42'0 0.0
2016-Sep-20 17:33N 57°41' E 010°42'0 0.0
2016-Sep-20 14:33N 57°41' E 010°42'0 0.0
2016-Sep-20 13:27N 57°41' E 010°42'0 0.0
2016-Sep-20 10:33N 57°41' E 010°42'0 0.0
2016-Sep-20 08:27N 57°41' E 010°42'0 0.0
2016-Sep-20 07:15N 57°41' E 010°42'0 0.0
2016-Sep-20 06:27N 57°41' E 010°42'0 0.0
2016-Sep-20 02:27N 57°41' E 010°42'0 0.0
2016-Sep-19 23:33N 57°41' E 010°42'0 0.0
2016-Sep-19 19:33N 57°41' E 010°42'0 0.1
2016-Sep-19 18:30N 57°41' E 010°42'0 0.0
2016-Sep-19 16:30N 57°41' E 010°42'0 0.0
2016-Sep-19 14:33N 57°41' E 010°42'0 0.0
2016-Sep-19 13:33N 57°41' E 010°42'0 0.0
2016-Sep-19 12:30N 57°41' E 010°42'0 0.0
2016-Sep-19 11:27N 57°41' E 010°41'0 0.0
2016-Sep-19 09:33N 57°41' E 010°41'0 0.0
2016-Sep-19 07:33N 57°41' E 010°42'0 0.1
2016-Sep-19 06:24N 57°41' E 010°42'0 0.0
2016-Sep-19 03:15N 57°41' E 010°42'0 0.0
2016-Sep-19 02:33N 57°41' E 010°42'0 0.0
2016-Sep-19 00:30N 57°41' E 010°42'0 0.0
2016-Sep-18 19:30N 57°41' E 010°41'0 0.0
2016-Sep-18 15:33N 57°41' E 010°41'1 1.0
2016-Sep-18 14:33N 57°42' E 010°43'34 8.3
2016-Sep-18 10:29N 57°42' E 009°39'8210.3
2016-Sep-18 02:33N 56°58' E 007°32'21510.2
2016-Sep-17 05:32N 53°50' E 004°27'1110.9
2016-Sep-17 04:33N 53°43' E 004°13'112 4.4
2016-Sep-16 03:28N 52°05' E 002°46'0 0.0
2016-Sep-16 00:31N 52°05' E 002°46'0 0.0
2016-Sep-15 22:28N 52°05' E 002°46'0 0.2
2016-Sep-15 21:28N 52°05' E 002°46'0 0.0
2016-Sep-15 20:28N 52°05' E 002°46'0 0.0
2016-Sep-15 18:31N 52°05' E 002°46'0 0.0
2016-Sep-15 12:31N 52°05' E 002°46'0 0.0
2016-Sep-15 11:32N 52°05' E 002°46'  

Dump ship's entire track history